Time;durP1;ratioP1;P1;durP2;ratioP2;P2;SDS_P1;SDS_P2;PMS_P1;PMS_P2;Temp;Humidity;BMP_temperature;BMP_pressure;BME280_temperature;BME280_humidity;BME280_pressure;Samples;Min_cycle;Max_cycle;Signal;HPM_P1;HPM_P2
2023/05/12 00:00:38;;;;;;;;;;;;;;;21.96;46.15;101274.59;5005005;28;4470;-64
2023/05/12 00:03:04;;;;;;;;;;;;;;;21.99;46.01;101261.78;5003031;28;4102;-64
2023/05/12 00:05:31;;;;;;;;;;;;;;;22.01;46.08;101264.75;5011027;28;4311;-64
2023/05/12 00:07:57;;;;;;;;;;;;;;;21.99;46.14;101261.78;5003627;28;4083;-64
2023/05/12 00:10:24;;;;;;;;;;;;;;;22.00;46.37;101262.53;5003904;28;4201;-64
2023/05/12 00:12:51;;;;;;;;;;;;;;;21.99;46.26;101261.78;5013512;28;4125;-64
2023/05/12 00:15:18;;;;;;;;;;;;;;;21.98;46.20;101257.41;5008450;28;4001;-64
2023/05/12 00:17:45;;;;;;;;;;;;;;;21.97;46.44;101253.03;5009984;28;4159;-64
2023/05/12 00:20:11;;;;;;;;;;;;;;;21.97;46.82;101258.81;5006840;28;4179;-64
2023/05/12 00:22:40;;;;;;;;;;;;;;;21.98;46.65;101253.78;5005379;28;4464;-64
2023/05/12 00:25:07;;;;;;;;;;;;;;;21.97;46.45;101250.16;5007650;28;4086;-64
2023/05/12 00:27:33;;;;;;;;;;;;;;;21.96;46.76;101251.53;5005816;28;4473;-64
2023/05/12 00:29:59;;;;;;;;;;;;;;;21.95;46.80;101259.44;5007114;28;3906;-64
2023/05/12 00:32:26;;;;;;;;;;;;;;;21.96;46.55;101251.53;5006159;28;4034;-64
2023/05/12 00:34:53;;;;;;;;;;;;;;;21.95;46.76;101247.91;5005887;28;4133;-64
2023/05/12 00:37:20;;;;;;;;;;;;;;;21.94;46.44;101255.09;5009287;28;3916;-64
2023/05/12 00:39:46;;;;;;;;;;;;;;;21.94;46.83;101260.09;5004813;28;4123;-64
2023/05/12 00:42:12;;;;;;;;;;;;;;;21.94;46.78;101263.75;5009712;28;4334;-64
2023/05/12 00:44:39;;;;;;;;;;;;;;;21.93;46.61;101261.50;5005666;28;4512;-64
2023/05/12 00:47:05;;;;;;;;;;;;;;;21.93;46.79;101259.34;5009696;28;4448;-64
2023/05/12 00:49:32;;;;;;;;;;;;;;;21.93;46.86;101270.16;5007448;28;4266;-64
2023/05/12 00:51:58;;;;;;;;;;;;;;;21.93;46.72;101270.16;5006959;28;4700;-64
2023/05/12 00:54:27;;;;;;;;;;;;;;;21.93;46.65;101270.88;4999602;28;4109;-64
2023/05/12 00:56:54;;;;;;;;;;;;;;;21.91;46.59;101261.41;4999161;28;4425;-64
2023/05/12 00:59:21;;;;;;;;;;;;;;;21.93;46.73;101270.16;5008194;28;4148;-64
2023/05/12 01:01:47;;;;;;;;;;;;;;;21.92;46.87;101268.66;5006655;28;4076;-64
2023/05/12 01:04:14;;;;;;;;;;;;;;;21.92;46.68;101268.66;4996837;28;4506;-64
2023/05/12 01:06:45;;;;;;;;;;;;;;;21.91;46.94;101270.06;5000146;28;5029;-64
2023/05/12 01:09:12;;;;;;;;;;;;;;;21.91;46.86;101267.16;5013019;28;4181;-64
2023/05/12 01:11:38;;;;;;;;;;;;;;;21.91;46.72;101267.16;5008566;28;4048;-64
2023/05/12 01:14:05;;;;;;;;;;;;;;;21.91;46.83;101270.06;5011420;28;4178;-64
2023/05/12 01:16:36;;;;;;;;;;;;;;;21.89;46.76;101270.69;5003571;28;4462;-64
2023/05/12 01:19:03;;;;;;;;;;;;;;;21.89;46.92;101270.69;4993173;28;4093;-64
2023/05/12 01:21:30;;;;;;;;;;;;;;;21.90;46.92;101268.56;5007361;28;3913;-64
2023/05/12 01:23:57;;;;;;;;;;;;;;;21.90;46.93;101271.47;5003943;28;4353;-64
2023/05/12 01:26:28;;;;;;;;;;;;;;;21.91;46.72;101270.78;5012049;28;3939;-64
2023/05/12 01:28:55;;;;;;;;;;;;;;;21.90;46.94;101274.34;5009740;28;4222;-64
2023/05/12 01:31:22;;;;;;;;;;;;;;;21.89;46.96;101281.50;5002372;28;4050;-64
2023/05/12 01:33:49;;;;;;;;;;;;;;;21.89;46.73;101275.72;5004212;28;4298;-65
2023/05/12 01:36:15;;;;;;;;;;;;;;;21.90;47.02;101280.09;5004184;28;4139;-74
2023/05/12 01:38:42;;;;;;;;;;;;;;;21.89;47.02;101281.50;5008780;28;4432;-74
2023/05/12 01:41:08;;;;;;;;;;;;;;;21.88;46.89;101274.25;5007659;28;4447;-74
2023/05/12 01:43:35;;;;;;;;;;;;;;;21.84;46.79;101277.66;5006024;28;4529;-74
2023/05/12 01:46:01;;;;;;;;;;;;;;;21.88;46.99;101285.78;5002694;28;4084;-74
2023/05/12 01:48:28;;;;;;;;;;;;;;;21.88;46.99;101285.78;5012845;28;4522;-73
2023/05/12 01:50:58;;;;;;;;;;;;;;;21.88;46.79;101294.44;5011160;28;4186;-74
2023/05/12 01:53:24;;;;;;;;;;;;;;;21.87;47.07;101290.03;5009503;28;4677;-74
2023/05/12 01:55:51;;;;;;;;;;;;;;;21.86;47.02;101295.06;5009313;28;4105;-74
2023/05/12 01:58:19;;;;;;;;;;;;;;;21.84;46.71;101291.34;5016562;28;4143;-74
2023/05/12 02:00:45;;;;;;;;;;;;;;;21.87;47.03;101278.50;5015275;28;4121;-72
2023/05/12 02:03:16;;;;;;;;;;;;;;;21.84;46.76;101280.56;5011127;28;4190;-74
2023/05/12 02:05:42;;;;;;;;;;;;;;;21.83;47.04;101284.84;5004270;28;4318;-74
2023/05/12 02:08:08;;;;;;;;;;;;;;;21.83;46.95;101290.59;5005836;28;4315;-74
2023/05/12 02:10:35;;;;;;;;;;;;;;;21.84;46.91;101291.34;5016038;28;4243;-74
2023/05/12 02:13:01;;;;;;;;;;;;;;;21.83;46.79;101289.84;5008585;28;4941;-73
2023/05/12 02:15:29;;;;;;;;;;;;;;;21.83;46.78;101302.13;5013028;28;4204;-74
2023/05/12 02:17:57;;;;;;;;;;;;;;;21.83;47.10;101307.13;5009631;28;4381;-74
2023/05/12 02:20:24;;;;;;;;;;;;;;;21.82;46.92;101299.91;5009827;28;4131;-74
2023/05/12 02:22:50;;;;;;;;;;;;;;;21.81;46.90;101309.94;5005558;28;4100;-74
2023/05/12 02:25:16;;;;;;;;;;;;;;;21.82;46.97;101305.66;5005274;28;4175;-73
2023/05/12 02:27:43;;;;;;;;;;;;;;;21.83;47.08;101301.38;5012495;28;4304;-73
2023/05/12 02:30:10;;;;;;;;;;;;;;;21.81;47.08;101309.94;5009293;28;4215;-73
2023/05/12 02:32:37;;;;;;;;;;;;;;;21.82;46.89;101294.88;5040148;28;4183;-73
2023/05/12 02:35:05;;;;;;;;;;;;;;;21.81;47.04;101293.41;5003530;28;4150;-74
2023/05/12 02:37:31;;;;;;;;;;;;;;;21.80;46.92;101296.91;5040866;28;4138;-73
2023/05/12 02:39:58;;;;;;;;;;;;;;;21.81;47.02;101304.91;5010569;28;4197;-74
2023/05/12 02:42:27;;;;;;;;;;;;;;;21.81;47.12;101298.41;4999290;28;3993;-74
2023/05/12 02:44:54;;;;;;;;;;;;;;;21.80;47.09;101299.78;5018081;28;5024;-74
2023/05/12 02:47:21;;;;;;;;;;;;;;;21.80;47.05;101308.44;5013545;28;4573;-74
2023/05/12 02:49:49;;;;;;;;;;;;;;;21.80;46.83;101303.41;5015747;28;4126;-74
2023/05/12 02:52:15;;;;;;;;;;;;;;;21.80;46.95;101303.41;5002919;28;4209;-73
2023/05/12 02:54:41;;;;;;;;;;;;;;;21.80;46.97;101299.78;5007372;28;4158;-74
2023/05/12 02:57:09;;;;;;;;;;;;;;;21.80;47.21;101302.69;5011921;28;4048;-74
2023/05/12 02:59:36;;;;;;;;;;;;;;;21.79;47.24;101295.44;5010965;28;4332;-74
2023/05/12 03:02:03;;;;;;;;;;;;;;;21.79;47.11;101304.81;4996706;28;4201;-74
2023/05/12 03:04:31;;;;;;;;;;;;;;;21.79;47.34;101304.09;5001457;28;4346;-73
2023/05/12 03:06:58;;;;;;;;;;;;;;;21.80;47.29;101296.91;5009515;28;4183;-74
2023/05/12 03:09:24;;;;;;;;;;;;;;;21.79;46.99;101301.19;5003488;28;4088;-74
2023/05/12 03:11:51;;;;;;;;;;;;;;;21.80;47.17;101308.44;5004626;28;4045;-74
2023/05/12 03:14:18;;;;;;;;;;;;;;;21.77;47.19;101307.59;5003283;28;4320;-73
2023/05/12 03:16:44;;;;;;;;;;;;;;;21.78;47.07;101311.97;5002427;28;4073;-74
2023/05/12 03:19:11;;;;;;;;;;;;;;;21.79;47.31;101312.72;5006148;28;4017;-73
2023/05/12 03:21:37;;;;;;;;;;;;;;;21.78;47.06;101311.97;5003355;28;4482;-73
2023/05/12 03:24:04;;;;;;;;;;;;;;;21.79;47.07;101309.84;5004678;28;4337;-74
2023/05/12 03:26:30;;;;;;;;;;;;;;;21.78;47.07;101311.22;5000458;28;4608;-80
2023/05/12 03:28:56;;;;;;;;;;;;;;;21.78;47.06;101322.75;5002448;28;4593;-73
2023/05/12 03:31:23;;;;;;;;;;;;;;;21.78;47.31;101317.00;5007016;28;4330;-75
2023/05/12 03:33:49;;;;;;;;;;;;;;;21.78;47.15;101317.00;5005375;28;4186;-74
2023/05/12 03:36:16;;;;;;;;;;;;;;;21.77;46.89;101309.75;5004158;28;4184;-74
2023/05/12 03:38:43;;;;;;;;;;;;;;;21.77;47.02;101318.41;5008021;28;4079;-74
2023/05/12 03:41:11;;;;;;;;;;;;;;;21.75;47.15;101319.78;5009349;28;4226;-75
2023/05/12 03:43:39;;;;;;;;;;;;;;;21.75;47.25;101319.78;5003536;28;4467;-75
2023/05/12 03:46:05;;;;;;;;;;;;;;;21.74;47.15;101324.06;5008726;28;4208;-74
2023/05/12 03:48:32;;;;;;;;;;;;;;;21.75;47.02;101324.81;5006189;28;4396;-74
2023/05/12 03:50:58;;;;;;;;;;;;;;;21.74;47.28;101324.06;5022231;28;3984;-74
2023/05/12 03:53:26;;;;;;;;;;;;;;;21.74;47.50;101320.44;5011298;28;4260;-74
2023/05/12 03:55:53;;;;;;;;;;;;;;;21.75;47.39;101328.44;5007287;28;4150;-74
2023/05/12 03:58:21;;;;;;;;;;;;;;;21.74;47.16;101323.31;5003591;28;4605;-74
2023/05/12 04:00:48;;;;;;;;;;;;;;;21.74;47.30;101331.97;5003764;28;4055;-74
2023/05/12 04:03:15;;;;;;;;;;;;;;;21.73;47.22;101331.22;5000679;28;4281;-74
2023/05/12 04:05:42;;;;;;;;;;;;;;;21.70;46.82;101328.88;5010122;28;4136;-75
2023/05/12 04:08:08;;;;;;;;;;;;;;;21.72;46.10;101331.88;5004535;28;4054;-74
2023/05/12 04:10:38;;;;;;;;;;;;;;;21.72;45.51;101329.72;5007762;28;4580;-75
2023/05/12 04:13:05;;;;;;;;;;;;;;;21.75;44.68;101337.06;5010611;28;4135;-74
2023/05/12 04:15:31;;;;;;;;;;;;;;;21.69;44.49;101328.16;5010187;28;4189;-74
2023/05/12 04:17:58;;;;;;;;;;;;;;;21.68;44.44;101338.16;4992390;28;4213;-75
2023/05/12 04:20:24;;;;;;;;;;;;;;;21.63;43.91;101335.75;5005588;28;4345;-74
2023/05/12 04:22:50;;;;;;;;;;;;;;;21.63;43.88;101335.75;5004331;28;4135;-74
2023/05/12 04:25:17;;;;;;;;;;;;;;;21.61;43.43;101338.53;5012804;28;4243;-74
2023/05/12 04:27:43;;;;;;;;;;;;;;;21.61;43.61;101338.53;5012276;28;4167;-73
2023/05/12 04:30:10;;;;;;;;;;;;;;;21.64;43.59;101340.84;5005168;28;4057;-74
2023/05/12 04:32:38;;;;;;;;;;;;;;;21.62;44.19;101340.00;5014286;28;4052;-69
2023/05/12 04:35:05;;;;;;;;;;;;;;;21.66;45.11;101335.19;5000598;28;4075;-71
2023/05/12 04:37:32;;;;;;;;;;;;;;;21.65;45.23;101333.72;5018791;28;4133;-73
2023/05/12 04:39:58;;;;;;;;;;;;;;;21.72;45.32;101343.41;5017870;28;4158;-74
2023/05/12 04:42:25;;;;;;;;;;;;;;;21.66;45.49;101343.84;5016686;28;4138;-73
2023/05/12 04:44:51;;;;;;;;;;;;;;;21.22;43.15;101345.97;5015147;28;4174;-74
2023/05/12 04:47:18;;;;;;;;;;;;;;;21.08;42.49;101348.88;5013196;28;4248;-72
2023/05/12 04:49:44;;;;;;;;;;;;;;;21.22;42.03;101357.50;5011831;28;5349;-71
2023/05/12 04:52:13;;;;;;;;;;;;;;;21.34;42.69;101355.22;5027687;28;3993;-71
2023/05/12 04:54:39;;;;;;;;;;;;;;;21.43;42.04;101356.41;5004621;28;4152;-71
2023/05/12 04:57:05;;;;;;;;;;;;;;;21.49;42.17;101358.84;5009884;28;4045;-71
2023/05/12 04:59:32;;;;;;;;;;;;;;;21.52;43.46;101363.31;5009562;28;4557;-71
2023/05/12 05:01:58;;;;;;;;;;;;;;;21.55;43.24;101359.13;5007844;28;4522;-72
2023/05/12 05:04:25;;;;;;;;;;;;;;;21.57;43.77;101367.88;5017421;28;3937;-71
2023/05/12 05:06:51;;;;;;;;;;;;;;;21.58;43.83;101363.63;5014560;28;4305;-71
2023/05/12 05:09:18;;;;;;;;;;;;;;;21.59;43.78;101362.22;5010248;28;4076;-71
2023/05/12 05:11:44;;;;;;;;;;;;;;;21.60;43.91;101366.63;5014900;28;4044;-71
2023/05/12 05:14:11;;;;;;;;;;;;;;;21.61;44.26;101368.09;5021280;28;4154;-71
2023/05/12 05:16:37;;;;;;;;;;;;;;;21.62;44.43;101369.56;5024089;28;4469;-71
2023/05/12 05:19:03;;;;;;;;;;;;;;;21.62;44.18;101366.69;5017748;28;4008;-71
2023/05/12 05:21:37;;;;;;;;;;;;;;;21.62;44.80;101378.22;5009007;28;4804;-71
2023/05/12 05:24:03;;;;;;;;;;;;;;;21.62;44.69;101372.44;5008775;28;4082;-71
2023/05/12 05:26:32;;;;;;;;;;;;;;;21.64;44.92;101372.56;5012908;28;4201;-72
2023/05/12 05:28:58;;;;;;;;;;;;;;;21.64;45.02;101384.09;5008519;28;3965;-72
2023/05/12 05:31:27;;;;;;;;;;;;;;;21.64;45.18;101378.31;5024844;28;4063;-71
2023/05/12 05:33:54;;;;;;;;;;;;;;;21.63;45.23;101379.72;5011366;28;5298;-72
2023/05/12 05:36:22;;;;;;;;;;;;;;;21.65;45.48;101388.47;5023572;28;4068;-71
2023/05/12 05:38:48;;;;;;;;;;;;;;;21.65;45.64;101385.59;5012023;28;4112;-72
2023/05/12 05:41:14;;;;;;;;;;;;;;;21.64;45.73;101384.09;5014893;28;4317;-71
2023/05/12 05:43:41;;;;;;;;;;;;;;;21.65;45.84;101385.59;5008421;28;4029;-71
2023/05/12 05:46:07;;;;;;;;;;;;;;;21.65;45.25;101388.47;5014764;28;4197;-72
2023/05/12 05:48:37;;;;;;;;;;;;;;;21.66;45.58;101392.09;5004004;28;4072;-70
2023/05/12 05:51:05;;;;;;;;;;;;;;;21.66;45.83;101386.31;5007093;28;5306;-72
2023/05/12 05:53:31;;;;;;;;;;;;;;;21.66;45.70;101395.72;5005214;28;4106;-71
2023/05/12 05:55:58;;;;;;;;;;;;;;;21.65;45.58;101397.13;5015278;28;4259;-71
2023/05/12 05:58:24;;;;;;;;;;;;;;;21.66;45.60;101401.47;5005052;28;4083;-71
2023/05/12 06:00:51;;;;;;;;;;;;;;;21.66;45.49;101398.59;5004827;28;4019;-71
2023/05/12 06:03:17;;;;;;;;;;;;;;;21.67;45.68;101403.00;5005352;28;4050;-71
2023/05/12 06:05:44;;;;;;;;;;;;;;;21.66;45.76;101404.34;5008391;28;4085;-71
2023/05/12 06:08:12;;;;;;;;;;;;;;;21.67;45.90;101405.09;5008078;28;4157;-71
2023/05/12 06:10:39;;;;;;;;;;;;;;;21.68;45.70;101401.59;5007747;28;4225;-71
2023/05/12 06:13:06;;;;;;;;;;;;;;;21.67;45.75;101410.88;5004742;28;4081;-71
2023/05/12 06:15:32;;;;;;;;;;;;;;;21.68;45.88;101410.22;5008475;28;4394;-71
2023/05/12 06:17:58;;;;;;;;;;;;;;;21.67;45.75;101400.09;5005286;28;4003;-71
2023/05/12 06:20:25;;;;;;;;;;;;;;;21.69;45.96;101413.84;5007305;28;3982;-71
2023/05/12 06:22:51;;;;;;;;;;;;;;;21.69;46.08;101408.09;5009974;28;4011;-71
2023/05/12 06:25:18;;;;;;;;;;;;;;;21.69;46.02;101408.84;5008789;28;5239;-71
2023/05/12 06:27:44;;;;;;;;;;;;;;;21.69;46.07;101414.63;5011087;28;4125;-71
2023/05/12 06:30:11;;;;;;;;;;;;;;;21.71;46.34;101416.84;5022903;28;4048;-71
2023/05/12 06:32:41;;;;;;;;;;;;;;;21.70;46.46;101418.97;5015458;28;4084;-71
2023/05/12 06:35:07;;;;;;;;;;;;;;;21.70;46.60;101421.88;5007167;28;4034;-71
2023/05/12 06:37:34;;;;;;;;;;;;;;;21.71;46.77;101411.81;5011224;28;4018;-71
2023/05/12 06:40:00;;;;;;;;;;;;;;;21.73;46.78;101414.78;5008159;28;3938;-72
2023/05/12 06:42:26;;;;;;;;;;;;;;;21.73;46.61;101423.44;5005163;28;4133;-72
2023/05/12 06:44:54;;;;;;;;;;;;;;;21.71;46.90;101411.81;4995853;28;4475;-71
2023/05/12 06:47:21;;;;;;;;;;;;;;;21.73;46.97;101414.06;5007169;28;4250;-72
2023/05/12 06:49:48;;;;;;;;;;;;;;;21.71;46.86;101423.34;5014550;28;4038;-71
2023/05/12 06:52:15;;;;;;;;;;;;;;;21.73;47.01;101414.78;5012079;28;5691;-72
2023/05/12 06:54:42;;;;;;;;;;;;;;;21.73;46.99;101411.19;5004116;28;4139;-72
2023/05/12 06:57:08;;;;;;;;;;;;;;;21.73;47.21;101414.78;5011471;28;4181;-71
2023/05/12 06:59:35;;;;;;;;;;;;;;;21.75;47.07;101417.03;5006649;28;4124;-71
2023/05/12 07:02:01;;;;;;;;;;;;;;;21.74;47.47;101421.34;5009282;28;4360;-71
2023/05/12 07:04:28;;;;;;;;;;;;;;;21.74;47.33;101421.34;5008895;28;3910;-71
2023/05/12 07:06:55;;;;;;;;;;;;;;;21.74;47.50;101416.31;5010397;28;4049;-72
2023/05/12 07:09:21;;;;;;;;;;;;;;;21.75;47.34;101414.91;5006350;28;4128;-70
2023/05/12 07:11:48;;;;;;;;;;;;;;;21.77;47.60;101425.06;5009255;28;4178;-72
2023/05/12 07:14:14;;;;;;;;;;;;;;;21.76;47.28;101412.75;5011073;28;4116;-71
2023/05/12 07:16:40;;;;;;;;;;;;;;;21.77;47.59;101410.66;5010509;28;4111;-71
2023/05/12 07:19:08;;;;;;;;;;;;;;;21.77;47.48;101414.25;5014054;28;4063;-71
2023/05/12 07:21:35;;;;;;;;;;;;;;;21.78;47.55;101415.00;5010481;28;4158;-72
2023/05/12 07:24:01;;;;;;;;;;;;;;;21.78;47.23;101417.88;5012815;28;4451;-72
2023/05/12 07:26:28;;;;;;;;;;;;;;;21.77;47.25;101414.25;5013164;28;4264;-72
2023/05/12 07:28:55;;;;;;;;;;;;;;;21.78;47.55;101421.50;5009878;28;4498;-71
2023/05/12 07:31:21;;;;;;;;;;;;;;;21.79;47.45;101422.28;5010476;28;4012;-72
2023/05/12 07:33:47;;;;;;;;;;;;;;;21.80;47.27;101418.00;5011197;28;4119;-72
2023/05/12 07:36:14;;;;;;;;;;;;;;;21.78;47.37;101415.75;5013020;28;4147;-71
2023/05/12 07:38:40;;;;;;;;;;;;;;;21.80;47.18;101418.72;5006805;28;4628;-65
2023/05/12 07:41:06;;;;;;;;;;;;;;;21.80;47.38;101418.72;5008489;28;4253;-72
2023/05/12 07:43:33;;;;;;;;;;;;;;;21.80;47.40;101409.34;5008899;28;4166;-72
2023/05/12 07:46:00;;;;;;;;;;;;;;;21.81;47.19;101407.97;5011590;28;4056;-71
2023/05/12 07:48:26;;;;;;;;;;;;;;;21.80;47.42;101412.97;5010771;28;4060;-71
2023/05/12 07:50:52;;;;;;;;;;;;;;;21.81;47.39;101413.72;5011565;28;4115;-71
2023/05/12 07:53:19;;;;;;;;;;;;;;;21.82;47.21;101415.22;5010676;28;4129;-71
2023/05/12 07:55:45;;;;;;;;;;;;;;;21.83;47.43;101425.34;5011376;28;4850;-71
2023/05/12 07:58:11;;;;;;;;;;;;;;;21.83;47.02;101422.47;5009810;28;3933;-72
2023/05/12 08:00:38;;;;;;;;;;;;;;;21.82;47.12;101409.44;5008316;28;4105;-71
2023/05/12 08:03:05;;;;;;;;;;;;;;;21.83;47.34;101428.22;5010287;28;4175;-72
2023/05/12 08:05:31;;;;;;;;;;;;;;;21.83;47.22;101422.47;5010688;28;4316;-71
2023/05/12 08:07:58;;;;;;;;;;;;;;;21.83;47.47;101416.69;5013722;28;4176;-71
2023/05/12 08:10:28;;;;;;;;;;;;;;;21.84;47.14;101415.31;5014186;28;4025;-71
2023/05/12 08:12:54;;;;;;;;;;;;;;;21.84;47.16;101418.94;5008601;28;4414;-71
2023/05/12 08:15:21;;;;;;;;;;;;;;;21.86;47.31;101424.06;5006975;28;4060;-71
2023/05/12 08:17:47;;;;;;;;;;;;;;;21.84;47.10;101426.84;5008613;28;4440;-71
2023/05/12 08:20:14;;;;;;;;;;;;;;;21.86;47.36;101421.91;5011275;28;4057;-71
2023/05/12 08:22:41;;;;;;;;;;;;;;;21.83;47.35;101417.47;5013876;28;4087;-71
2023/05/12 08:25:07;;;;;;;;;;;;;;;21.83;47.35;101417.47;5010861;28;4466;-71
2023/05/12 08:27:37;;;;;;;;;;;;;;;21.87;47.08;101419.78;5010194;28;4397;-71
2023/05/12 08:30:04;;;;;;;;;;;;;;;21.85;47.40;101420.44;5013860;28;4171;-72
2023/05/12 08:32:30;;;;;;;;;;;;;;;21.88;47.32;101424.16;5010471;28;4152;-71
2023/05/12 08:34:57;;;;;;;;;;;;;;;21.86;47.16;101421.91;5008069;28;3978;-71
2023/05/12 08:37:23;;;;;;;;;;;;;;;21.88;47.31;101424.16;5010620;28;4140;-71
2023/05/12 08:39:49;;;;;;;;;;;;;;;21.88;47.23;101427.06;5010100;28;4429;-71
2023/05/12 08:42:36;;;;;;;;;;;;;;;21.88;47.39;101424.16;5008594;28;4145;-71
2023/05/12 08:45:03;;;;;;;;;;;;;;;21.88;47.24;101424.91;5010523;28;4170;-71
2023/05/12 08:47:29;;;;;;;;;;;;;;;21.90;47.26;101433.66;5006037;28;4154;-71
2023/05/12 08:49:59;;;;;;;;;;;;;;;21.90;47.39;101427.16;5009187;28;4216;-71
2023/05/12 08:52:30;;;;;;;;;;;;;;;21.88;47.34;101427.78;5008191;28;3996;-71
2023/05/12 08:54:57;;;;;;;;;;;;;;;21.89;47.08;101426.38;5009826;28;4213;-71
2023/05/12 08:57:25;;;;;;;;;;;;;;;21.89;47.58;101414.84;5013713;28;4103;-71
2023/05/12 08:59:55;;;;;;;;;;;;;;;21.90;47.48;101421.38;5011734;28;3947;-71
2023/05/12 09:02:22;;;;;;;;;;;;;;;21.91;47.40;101422.88;5016576;28;4154;-71
2023/05/12 09:04:49;;;;;;;;;;;;;;;21.92;47.32;101424.34;5013411;28;4138;-72
2023/05/12 09:07:21;;;;;;;;;;;;;;;21.92;47.17;101425.13;5006507;28;3981;-70
2023/05/12 09:09:47;;;;;;;;;;;;;;;21.90;47.42;101418.50;5010011;28;4308;-71
2023/05/12 09:12:15;;;;;;;;;;;;;;;21.92;47.22;101418.56;5008912;28;4206;-72
2023/05/12 09:14:42;;;;;;;;;;;;;;;21.92;47.26;101413.59;5009054;28;4341;-71
2023/05/12 09:17:08;;;;;;;;;;;;;;;21.93;47.57;101411.44;5007264;28;4028;-71
2023/05/12 09:19:34;;;;;;;;;;;;;;;21.92;47.48;101415.69;5011488;28;4351;-71
2023/05/12 09:22:01;;;;;;;;;;;;;;;21.93;47.36;101414.31;5009364;28;4024;-71
2023/05/12 09:24:33;;;;;;;;;;;;;;;21.94;47.24;101410.03;5014422;28;5002;-71
2023/05/12 09:27:00;;;;;;;;;;;;;;;21.94;47.23;101413.69;5006206;28;4070;-71
2023/05/12 09:29:26;;;;;;;;;;;;;;;21.94;47.52;101413.69;5008205;28;4048;-71
2023/05/12 09:32:00;;;;;;;;;;;;;;;21.94;47.52;101433.09;5012047;28;4010;-71
2023/05/12 09:34:31;;;;;;;;;;;;;;;21.94;47.28;101415.78;5006995;28;4068;-71
2023/05/12 09:36:58;;;;;;;;;;;;;;;21.95;47.32;101417.31;5011518;28;4109;-71
2023/05/12 09:39:24;;;;;;;;;;;;;;;21.95;47.35;101418.03;5011182;28;4137;-71
2023/05/12 09:41:51;;;;;;;;;;;;;;;21.97;47.28;101414.53;5042284;28;4077;-71
2023/05/12 09:44:17;;;;;;;;;;;;;;;21.96;47.55;101410.13;5005819;28;4514;-71
2023/05/12 09:46:44;;;;;;;;;;;;;;;21.95;47.47;101409.38;5009180;28;4219;-71
2023/05/12 09:49:10;;;;;;;;;;;;;;;21.97;47.44;101408.75;5010121;28;4042;-71
2023/05/12 09:51:37;;;;;;;;;;;;;;;21.98;47.45;101403.72;5010515;28;4060;-71
2023/05/12 09:54:03;;;;;;;;;;;;;;;21.99;47.27;101410.97;5014839;28;4234;-71
2023/05/12 09:56:34;;;;;;;;;;;;;;;21.98;47.58;101412.38;5013547;28;4443;-71
2023/05/12 09:59:00;;;;;;;;;;;;;;;21.96;47.49;101419.53;5009373;28;4631;-71
2023/05/12 10:01:27;;;;;;;;;;;;;;;21.96;47.55;101415.91;5011610;28;4026;-71
2023/05/12 10:03:54;;;;;;;;;;;;;;;21.96;47.26;101407.25;5007254;28;5182;-71
2023/05/12 10:06:25;;;;;;;;;;;;;;;21.98;47.67;101410.22;5009410;28;4154;-71
2023/05/12 10:08:53;;;;;;;;;;;;;;;21.99;47.33;101408.84;5007190;28;4019;-72
2023/05/12 10:11:20;;;;;;;;;;;;;;;22.00;47.56;101419.00;5007663;28;3974;-72
2023/05/12 10:13:46;;;;;;;;;;;;;;;21.99;47.64;101411.75;5005963;28;4337;-71
2023/05/12 10:16:13;;;;;;;;;;;;;;;21.99;47.51;101400.19;5010545;28;3954;-70
2023/05/12 10:18:39;;;;;;;;;;;;;;;22.00;47.48;101406.72;5005963;28;4115;-71
2023/05/12 10:21:07;;;;;;;;;;;;;;;22.01;47.48;101403.16;5007747;28;4350;-71
2023/05/12 10:23:33;;;;;;;;;;;;;;;22.03;47.59;101403.25;5009689;28;3998;-71
2023/05/12 10:26:03;;;;;;;;;;;;;;;22.00;47.45;101395.91;5005868;28;4150;-71
2023/05/12 10:28:29;;;;;;;;;;;;;;;22.02;47.25;101396.00;5012112;28;4227;-71
2023/05/12 10:30:56;;;;;;;;;;;;;;;22.03;47.61;101399.63;5012457;28;4111;-71
2023/05/12 10:33:22;;;;;;;;;;;;;;;22.03;47.39;101388.09;5010324;28;4354;-71
2023/05/12 10:35:50;;;;;;;;;;;;;;;22.03;47.47;101388.09;5010276;28;4188;-72
2023/05/12 10:38:16;;;;;;;;;;;;;;;22.04;47.65;101401.88;5007609;28;4154;-72
2023/05/12 10:40:57;;;;;;;;;;;;;;;22.02;47.75;101392.38;5008485;28;4091;-71
2023/05/12 10:43:25;;;;;;;;;;;;;;;22.02;47.66;101387.38;5006873;28;4082;-71
2023/05/12 10:46:10;;;;;;;;;;;;;;;22.00;47.63;101384.38;5007234;28;4253;-71
2023/05/12 10:48:48;;;;;;;;;;;;;;;22.02;47.59;101381.59;5016914;28;4205;-71
2023/05/12 10:51:17;;;;;;;;;;;;;;;22.05;47.54;101386.06;5012629;28;4198;-69
2023/05/12 10:53:44;;;;;;;;;;;;;;;22.04;47.44;101384.59;5015013;28;4118;-68
2023/05/12 10:56:22;;;;;;;;;;;;;;;22.06;47.51;101381.03;5013347;28;4290;-68
2023/05/12 10:59:08;;;;;;;;;;;;;;;22.03;47.57;101385.97;5013274;28;4509;-69
2023/05/12 11:01:35;;;;;;;;;;;;;;;22.05;47.50;101391.81;5013744;28;4452;-69
2023/05/12 11:04:12;;;;;;;;;;;;;;;22.07;47.78;101391.94;5012352;28;4075;-69
2023/05/12 11:06:39;;;;;;;;;;;;;;;22.08;47.56;101381.13;5010181;28;3996;-69
2023/05/12 11:09:06;;;;;;;;;;;;;;;22.08;47.78;101384.78;5012939;28;4049;-69
2023/05/12 11:11:34;;;;;;;;;;;;;;;22.08;47.60;101379.00;5017494;28;4026;-68
2023/05/12 11:14:01;;;;;;;;;;;;;;;22.09;48.08;101374.72;5013830;28;4140;-68
2023/05/12 11:16:28;;;;;;;;;;;;;;;22.07;48.04;101391.94;5018369;28;4031;-68
2023/05/12 11:19:01;;;;;;;;;;;;;;;22.08;48.04;101379.00;5009313;28;4358;-68
2023/05/12 11:21:29;;;;;;;;;;;;;;;22.10;48.14;101381.22;5011093;28;4129;-69
2023/05/12 11:23:55;;;;;;;;;;;;;;;22.10;48.15;101387.72;5010706;28;4001;-69
2023/05/12 11:26:21;;;;;;;;;;;;;;;22.09;48.14;101373.97;5010805;28;4045;-68
2023/05/12 11:28:48;;;;;;;;;;;;;;;22.08;48.16;101379.00;5017765;28;4243;-68
2023/05/12 11:31:18;;;;;;;;;;;;;;;22.08;48.45;101373.25;5015181;28;4070;-71
2023/05/12 11:33:45;;;;;;;;;;;;;;;22.09;48.09;101380.50;5012492;28;4485;-71
2023/05/12 11:36:11;;;;;;;;;;;;;;;22.10;48.16;101384.84;5012576;28;4043;-71
2023/05/12 11:38:37;;;;;;;;;;;;;;;22.06;48.29;101376.03;5009071;28;4154;-67
2023/05/12 11:41:04;;;;;;;;;;;;;;;22.08;48.33;101384.78;5008309;28;3998;-68
2023/05/12 11:43:30;;;;;;;;;;;;;;;22.10;48.07;101390.63;5014923;28;4097;-68
2023/05/12 11:45:58;;;;;;;;;;;;;;;22.11;48.06;101385.63;5015394;28;4116;-68
2023/05/12 11:48:31;;;;;;;;;;;;;;;22.11;48.30;101400.03;5012251;28;4376;-69
2023/05/12 11:50:57;;;;;;;;;;;;;;;22.10;48.20;101399.28;5015577;28;3989;-68
2023/05/12 11:53:24;;;;;;;;;;;;;;;22.10;48.70;101399.28;5014309;28;4298;-69
2023/05/12 11:55:53;;;;;;;;;;;;;;;22.08;48.71;101390.56;5014185;28;3999;-68
2023/05/12 11:58:20;;;;;;;;;;;;;;;22.10;48.48;101402.16;5009848;28;4015;-68
2023/05/12 12:00:47;;;;;;;;;;;;;;;22.10;48.86;101393.50;5013352;28;4079;-68
2023/05/12 12:03:14;;;;;;;;;;;;;;;22.12;48.88;101399.38;5015425;28;4345;-69
2023/05/12 12:05:42;;;;;;;;;;;;;;;22.12;48.70;101402.25;5007012;28;4217;-68
2023/05/12 12:08:09;;;;;;;;;;;;;;;22.13;48.81;101392.22;5014613;28;4045;-68
2023/05/12 12:10:35;;;;;;;;;;;;;;;22.14;48.78;101399.47;5014735;28;4077;-68
2023/05/12 12:13:02;;;;;;;;;;;;;;;22.15;48.68;101397.31;5012174;28;4088;-68
2023/05/12 12:15:28;;;;;;;;;;;;;;;22.16;49.13;101399.56;5012891;28;4223;-68
2023/05/12 12:17:54;;;;;;;;;;;;;;;22.15;49.40;101389.44;5014730;28;3907;-68
2023/05/12 12:20:23;;;;;;;;;;;;;;;22.18;49.33;101393.91;5013250;28;4177;-68
2023/05/12 12:22:50;;;;;;;;;;;;;;;22.18;49.57;101388.13;5012717;28;4027;-68
2023/05/12 12:25:16;;;;;;;;;;;;;;;22.20;49.85;101390.38;5016820;28;4286;-68
2023/05/12 12:27:43;;;;;;;;;;;;;;;22.20;50.39;101395.41;5009372;28;4040;-69
2023/05/12 12:30:10;;;;;;;;;;;;;;;22.20;50.43;101401.19;5012100;28;4406;-69
2023/05/12 12:32:37;;;;;;;;;;;;;;;22.20;50.91;101390.38;5010969;28;4318;-68
2023/05/12 12:35:05;;;;;;;;;;;;;;;22.21;50.89;101396.88;5009538;28;3987;-68
2023/05/12 12:37:32;;;;;;;;;;;;;;;22.24;51.18;101392.72;5002546;28;4177;-68
2023/05/12 12:39:58;;;;;;;;;;;;;;;22.26;51.70;101393.56;5007687;28;4199;-68
2023/05/12 12:42:24;;;;;;;;;;;;;;;22.27;51.21;101377.75;5009724;28;4097;-67
2023/05/12 12:44:51;;;;;;;;;;;;;;;22.29;51.42;101380.00;5010119;28;4102;-68
2023/05/12 12:47:17;;;;;;;;;;;;;;;22.28;51.19;101392.91;5011578;28;4088;-68